createdAt,value
2022-10-15T00:07:58.085Z,16.50
2022-10-15T06:47:48.489Z,16.40
2022-10-15T07:11:42.317Z,17.00
2022-10-15T07:26:16.195Z,18.00
2022-10-15T07:43:34.482Z,18.00
2022-10-15T07:46:15.448Z,18.00
2022-10-15T07:48:50.184Z,18.00
2022-10-15T07:57:17.275Z,18.10
2022-10-15T08:15:14.918Z,18.60
2022-10-15T08:18:07.475Z,18.70
2022-10-15T08:20:42.345Z,18.80
2022-10-15T08:23:39.985Z,18.80
2022-10-15T08:26:11.068Z,18.80
2022-10-15T08:28:40.236Z,18.80
2022-10-15T08:31:07.145Z,18.90
2022-10-15T08:33:35.047Z,18.90
2022-10-15T08:36:02.158Z,19.00
2022-10-15T08:38:30.605Z,19.00
2022-10-15T08:40:58.265Z,19.00
2022-10-15T08:43:27.387Z,19.10
2022-10-15T08:45:57.789Z,19.10
2022-10-15T08:48:30.458Z,19.10
2022-10-15T08:51:12.248Z,19.20
2022-10-15T08:53:41.672Z,19.20
2022-10-15T08:56:27.437Z,19.30
2022-10-15T08:58:54.383Z,19.40
2022-10-15T09:01:26.593Z,19.50
2022-10-15T09:04:05.731Z,19.50
2022-10-15T09:06:37.418Z,19.60
2022-10-15T09:09:16.658Z,19.60
2022-10-15T09:11:46.590Z,19.60
2022-10-15T09:14:16.665Z,19.60
2022-10-15T09:16:44.465Z,19.60
2022-10-15T09:19:19.567Z,19.60
2022-10-15T09:21:50.763Z,19.60
2022-10-15T09:24:26.315Z,19.60
2022-10-15T09:27:13.039Z,19.60
2022-10-15T09:29:49.821Z,19.60
2022-10-15T09:32:35.198Z,19.70
2022-10-15T09:35:12.878Z,19.70
2022-10-15T09:38:05.671Z,19.80
2022-10-15T09:40:48.542Z,19.80
2022-10-15T09:43:18.197Z,19.80
2022-10-15T09:45:46.026Z,19.80
2022-10-15T09:48:17.044Z,19.80
2022-10-15T09:50:53.980Z,19.90
2022-10-15T09:53:28.236Z,19.90
2022-10-15T09:56:14.258Z,19.90
2022-10-15T09:58:58.628Z,19.90
2022-10-15T10:01:31.310Z,19.90
2022-10-15T10:04:20.042Z,20.00
2022-10-15T10:06:59.554Z,20.00
2022-10-15T10:09:36.109Z,20.00
2022-10-15T10:14:57.038Z,20.30
2022-10-15T10:23:30.512Z,20.60
2022-10-15T10:26:13.335Z,20.50
2022-10-15T10:28:56.933Z,20.50
2022-10-15T10:31:44.974Z,20.50
2022-10-15T10:34:40.421Z,20.50
2022-10-15T10:37:07.855Z,20.40
2022-10-15T10:39:40.407Z,20.40
2022-10-15T10:42:23.915Z,20.30
2022-10-15T10:44:58.808Z,20.30
2022-10-15T10:47:43.022Z,20.30
2022-10-15T10:50:33.097Z,20.20
2022-10-15T10:53:21.223Z,20.30
2022-10-15T10:55:51.527Z,20.30
2022-10-15T10:58:26.994Z,20.30
2022-10-15T11:03:47.137Z,20.40
2022-10-15T11:06:17.240Z,20.40
2022-10-15T11:08:57.745Z,20.50
2022-10-15T11:11:42.144Z,20.70
2022-10-15T11:14:31.490Z,20.70
2022-10-15T11:24:04.724Z,21.40
2022-10-15T11:27:11.677Z,21.30
2022-10-15T11:29:44.227Z,21.40
2022-10-15T11:32:47.973Z,21.40
2022-10-15T11:35:40.837Z,21.40
2022-10-15T11:38:27.598Z,21.30
2022-10-15T11:41:03.112Z,21.20
2022-10-15T11:43:51.453Z,21.20
2022-10-15T11:46:33.854Z,21.30
2022-10-15T11:49:10.061Z,21.40
2022-10-15T11:51:56.257Z,21.40
2022-10-15T11:57:32.933Z,21.50
2022-10-15T12:00:43.999Z,21.50
2022-10-15T12:03:32.732Z,21.50
2022-10-15T12:06:11.854Z,21.40
2022-10-15T12:11:53.739Z,21.20
2022-10-15T12:14:59.307Z,21.10
2022-10-15T12:17:48.279Z,21.10
2022-10-15T12:20:18.854Z,21.10
2022-10-15T12:23:00.070Z,21.10
2022-10-15T12:25:57.251Z,21.10
2022-10-15T12:28:29.943Z,21.10
2022-10-15T12:34:55.603Z,21.10
2022-10-15T12:37:29.961Z,21.20
2022-10-15T12:40:30.109Z,21.20
2022-10-15T12:46:04.749Z,21.40
2022-10-15T12:48:41.820Z,21.50
2022-10-15T12:51:30.111Z,21.50
2022-10-15T12:54:18.674Z,21.50
2022-10-15T12:57:00.946Z,21.50
2022-10-15T13:00:03.971Z,21.60
2022-10-15T13:02:51.079Z,21.50
2022-10-15T13:05:54.151Z,21.40
2022-10-15T13:08:55.852Z,21.30
2022-10-15T13:11:30.621Z,21.20
2022-10-15T13:17:44.378Z,21.20
2022-10-15T13:20:28.176Z,21.30
2022-10-15T13:23:18.796Z,21.50
2022-10-15T13:26:20.577Z,21.90
2022-10-15T13:28:49.993Z,22.20
2022-10-15T13:31:32.732Z,22.30
2022-10-15T13:34:03.826Z,22.20
2022-10-15T13:36:35.108Z,22.10
2022-10-15T13:39:31.488Z,22.10
2022-10-15T13:42:10.833Z,22.10
2022-10-15T13:45:13.855Z,22.10
2022-10-15T13:47:49.617Z,22.00
2022-10-15T14:16:17.552Z,21.60
2022-10-15T14:19:08.004Z,22.00
2022-10-15T14:21:42.563Z,22.40
2022-10-15T14:24:36.732Z,22.90
2022-10-15T14:27:16.394Z,23.20
2022-10-15T14:29:59.853Z,23.60
2022-10-15T14:32:30.942Z,23.80
2022-10-15T14:35:48.580Z,23.80
2022-10-15T14:42:01.978Z,23.30
2022-10-15T15:08:03.076Z,22.00
2022-10-15T15:17:37.089Z,21.70
2022-10-15T15:20:08.743Z,21.50
2022-10-15T15:23:05.239Z,21.50
2022-10-15T15:45:04.314Z,20.90
2022-10-15T15:51:03.624Z,20.70
2022-10-15T15:53:32.863Z,20.60
2022-10-15T15:56:51.276Z,20.50
2022-10-15T15:59:24.401Z,20.30
2022-10-15T16:11:40.092Z,19.90
2022-10-15T16:14:09.500Z,19.70
2022-10-15T16:32:04.656Z,19.40
2022-10-15T16:34:42.834Z,19.30
2022-10-15T16:37:13.858Z,19.20
2022-10-15T16:39:42.251Z,19.20
2022-10-15T16:42:09.734Z,19.10
2022-10-15T16:44:39.057Z,19.00
2022-10-15T16:47:11.393Z,19.10
2022-10-15T16:49:39.287Z,19.00
2022-10-15T16:52:07.842Z,19.00
2022-10-15T16:54:35.919Z,18.90
2022-10-15T16:57:07.267Z,18.90
2022-10-15T16:59:50.774Z,18.80
2022-10-15T17:02:20.379Z,18.70
2022-10-15T17:04:49.788Z,18.60
2022-10-15T17:07:17.470Z,18.50
2022-10-15T17:09:54.205Z,18.50
2022-10-15T17:12:35.440Z,18.40
2022-10-15T17:15:33.660Z,18.40
2022-10-15T17:18:06.937Z,18.40
2022-10-15T17:20:35.153Z,18.40
2022-10-15T17:23:16.165Z,18.30
2022-10-15T17:25:47.605Z,18.40
2022-10-15T17:34:02.971Z,18.30
2022-10-15T17:36:33.659Z,18.30
2022-10-15T17:39:04.204Z,18.30
2022-10-15T17:42:04.780Z,18.20
2022-10-15T17:44:34.083Z,18.20
2022-10-15T17:47:05.865Z,18.20
2022-10-15T17:49:35.553Z,18.20
2022-10-15T17:52:04.292Z,18.20
2022-10-15T17:54:32.458Z,18.20
2022-10-15T17:57:46.881Z,18.20
2022-10-15T18:00:22.451Z,18.20
2022-10-15T18:02:52.393Z,18.20
2022-10-15T18:05:46.968Z,18.20
2022-10-15T18:11:06.863Z,18.20
2022-10-15T18:13:33.953Z,18.20
2022-10-15T18:19:53.069Z,18.10
2022-10-15T18:22:20.922Z,18.10
2022-10-15T22:38:23.887Z,16.80
2022-10-15T22:44:25.398Z,16.80
